createdAt,value
2022-09-20T00:02:15.040Z,1.38
2022-09-20T00:08:53.253Z,1.25
2022-09-20T00:11:23.445Z,1.23
2022-09-20T00:13:56.870Z,1.50
2022-09-20T00:16:28.830Z,1.45
2022-09-20T00:18:58.481Z,1.45
2022-09-20T00:21:31.256Z,1.40
2022-09-20T00:24:01.307Z,1.10
2022-09-20T00:26:31.148Z,1.23
2022-09-20T00:28:59.250Z,1.20
2022-09-20T00:31:27.053Z,1.00
2022-09-20T00:34:17.912Z,1.40
2022-09-20T00:36:47.568Z,1.55
2022-09-20T00:39:18.056Z,1.40
2022-09-20T00:41:50.820Z,1.20
2022-09-20T00:48:31.728Z,1.25
2022-09-20T00:51:11.376Z,1.17
2022-09-20T00:53:47.699Z,1.30
2022-09-20T00:56:28.573Z,1.00
2022-09-20T01:01:41.686Z,1.30
2022-09-20T01:05:27.994Z,1.17
2022-09-20T01:07:57.212Z,1.10
2022-09-20T01:10:26.940Z,1.60
2022-09-20T01:12:55.660Z,1.27
2022-09-20T01:16:15.110Z,1.40
2022-09-20T01:18:44.185Z,1.17
2022-09-20T01:21:13.506Z,1.40
2022-09-20T01:24:24.963Z,1.25
2022-09-20T01:27:11.955Z,1.30
2022-09-20T01:29:56.041Z,1.10
2022-09-20T01:32:40.364Z,1.20
2022-09-20T01:35:11.807Z,1.50
2022-09-20T01:37:59.332Z,1.13
2022-09-20T01:41:08.937Z,1.13
2022-09-20T01:44:31.059Z,1.40
2022-09-20T01:47:09.803Z,1.48
2022-09-20T01:49:52.207Z,1.27
2022-09-20T01:52:50.645Z,1.50
2022-09-20T01:55:25.804Z,1.00
2022-09-20T01:58:24.038Z,1.20
2022-09-20T02:01:13.139Z,1.00
2022-09-20T02:03:59.238Z,1.10
2022-09-20T02:06:52.604Z,1.58
2022-09-20T02:09:47.769Z,1.48
2022-09-20T02:12:35.929Z,1.30
2022-09-20T02:15:36.800Z,1.35
2022-09-20T02:18:43.959Z,1.48
2022-09-20T02:21:31.402Z,1.58
2022-09-20T02:24:21.248Z,1.30
2022-09-20T02:27:19.159Z,1.27
2022-09-20T02:29:58.515Z,1.48
2022-09-20T02:32:55.031Z,1.70
2022-09-20T02:35:38.962Z,1.20
2022-09-20T02:38:41.369Z,1.55
2022-09-20T02:41:11.794Z,1.25
2022-09-20T02:44:05.890Z,1.50
2022-09-20T02:46:45.955Z,1.50
2022-09-20T02:49:50.952Z,1.10
2022-09-20T02:52:32.794Z,1.55
2022-09-20T02:55:26.565Z,1.30
2022-09-20T02:58:10.848Z,1.33
2022-09-20T03:00:49.881Z,1.20
2022-09-20T03:03:41.206Z,1.73
2022-09-20T03:06:41.727Z,1.52
2022-09-20T03:09:31.393Z,1.52
2022-09-20T03:12:38.787Z,1.48
2022-09-20T03:15:22.484Z,1.45
2022-09-20T03:18:16.721Z,1.30
2022-09-20T03:21:05.763Z,1.50
2022-09-20T03:23:52.550Z,1.10
2022-09-20T03:26:48.854Z,1.60
2022-09-20T03:29:44.414Z,1.10
2022-09-20T03:32:40.596Z,1.95
2022-09-20T03:35:36.453Z,1.52
2022-09-20T03:38:18.859Z,1.40
2022-09-20T03:41:13.608Z,1.40
2022-09-20T03:44:02.371Z,1.13
2022-09-20T03:46:36.031Z,1.30
2022-09-20T03:49:19.923Z,1.50
2022-09-20T03:52:06.098Z,1.50
2022-09-20T03:54:55.129Z,1.50
2022-09-20T03:57:45.364Z,1.67
2022-09-20T04:00:34.345Z,1.52
2022-09-20T04:03:07.312Z,1.15
2022-09-20T04:05:34.818Z,1.33
2022-09-20T04:08:28.477Z,1.60
2022-09-20T04:11:25.260Z,1.60
2022-09-20T04:14:21.244Z,1.10
2022-09-20T04:17:41.892Z,1.30
2022-09-20T04:20:47.588Z,1.70
2022-09-20T04:23:52.022Z,1.45
2022-09-20T04:26:30.663Z,1.30
2022-09-20T04:29:14.730Z,1.60
2022-09-20T04:31:57.361Z,1.50
2022-09-20T04:35:01.513Z,1.55
2022-09-20T04:37:38.628Z,1.70
2022-09-20T04:40:32.251Z,1.67
2022-09-20T04:43:36.798Z,1.30
2022-09-20T04:46:04.886Z,1.80
2022-09-20T04:49:08.460Z,1.35
2022-09-20T04:52:14.130Z,1.83
2022-09-20T04:55:19.452Z,1.90
2022-09-20T04:58:12.153Z,1.70
2022-09-20T05:01:17.197Z,1.70
2022-09-20T05:04:12.597Z,1.88
2022-09-20T05:07:03.432Z,1.92
2022-09-20T05:09:48.743Z,2.40
2022-09-20T05:12:36.297Z,1.80
2022-09-20T05:15:41.467Z,1.80
2022-09-20T05:18:42.352Z,1.67
2022-09-20T05:21:46.782Z,1.95
2022-09-20T05:24:43.110Z,1.70
2022-09-20T05:27:23.464Z,1.42
2022-09-20T05:30:19.711Z,1.88
2022-09-20T05:33:22.322Z,1.92
2022-09-20T05:36:10.835Z,2.00
2022-09-20T05:40:15.805Z,1.30
2022-09-20T05:43:11.708Z,1.73
2022-09-20T05:46:16.642Z,1.00
2022-09-20T05:49:27.548Z,1.42
2022-09-20T05:53:27.620Z,1.40
2022-09-20T05:56:16.939Z,1.50
2022-09-20T05:59:23.755Z,1.70
2022-09-20T06:02:54.848Z,1.50
2022-09-20T06:07:32.367Z,1.70
2022-09-20T06:09:29.508Z,1.70
2022-09-20T06:12:19.189Z,1.63
2022-09-20T06:15:20.207Z,1.48
2022-09-20T06:18:08.183Z,1.23
2022-09-20T06:21:10.343Z,1.60
2022-09-20T06:23:42.907Z,1.70
2022-09-20T06:26:26.990Z,2.33
2022-09-20T06:29:04.351Z,1.40
2022-09-20T06:31:33.973Z,1.70
2022-09-20T06:34:09.203Z,1.58
2022-09-20T06:37:06.251Z,1.25
2022-09-20T06:40:11.255Z,2.03
2022-09-20T06:42:44.763Z,1.67
2022-09-20T06:45:23.919Z,1.60
2022-09-20T06:47:54.631Z,1.50
2022-09-20T06:50:24.995Z,1.70
2022-09-20T06:52:57.622Z,1.48
2022-09-20T06:55:35.136Z,1.58
2022-09-20T06:58:08.569Z,2.00
2022-09-20T07:00:40.460Z,1.90
2022-09-20T07:03:11.043Z,2.20
2022-09-20T07:05:39.607Z,1.73
2022-09-20T07:08:12.848Z,1.30
2022-09-20T07:10:43.682Z,1.30
2022-09-20T07:13:26.737Z,1.48
2022-09-20T07:16:04.143Z,1.35
2022-09-20T07:18:47.970Z,1.40
2022-09-20T07:21:19.515Z,2.40
2022-09-20T07:26:28.036Z,1.35
2022-09-20T07:29:00.871Z,1.48
2022-09-20T07:31:36.823Z,1.35
2022-09-20T07:34:36.602Z,1.58
2022-09-20T07:37:05.378Z,1.42
2022-09-20T07:39:35.138Z,1.45
2022-09-20T07:42:07.397Z,1.33
2022-09-20T07:44:34.832Z,1.40
2022-09-20T07:47:05.970Z,1.40
2022-09-20T07:49:33.398Z,1.20
2022-09-20T07:52:05.397Z,1.40
2022-09-20T07:54:32.963Z,1.40
2022-09-20T07:57:00.397Z,1.58
2022-09-20T07:59:35.636Z,1.50
2022-09-20T08:02:06.314Z,1.33
2022-09-20T08:05:54.631Z,1.60
2022-09-20T08:08:28.457Z,1.40
2022-09-20T08:11:07.568Z,1.40
2022-09-20T08:17:02.065Z,1.35
2022-09-20T08:19:45.535Z,1.60
2022-09-20T08:22:17.894Z,1.30
2022-09-20T08:25:01.743Z,1.30
2022-09-20T08:27:56.844Z,1.27
2022-09-20T08:30:33.575Z,1.40
2022-09-20T08:33:13.729Z,1.27
2022-09-20T08:35:44.032Z,1.30
2022-09-20T08:41:36.399Z,1.40
2022-09-20T08:44:57.868Z,1.65
2022-09-20T08:47:40.532Z,1.55
2022-09-20T08:50:17.615Z,1.60
2022-09-20T08:53:02.898Z,1.45
2022-09-20T08:55:37.742Z,1.50
2022-09-20T08:58:24.834Z,1.10
2022-09-20T09:01:03.282Z,1.52
2022-09-20T09:03:34.626Z,1.85
2022-09-20T09:09:47.606Z,2.08
2022-09-20T09:12:27.218Z,1.63
2022-09-20T09:15:06.645Z,1.60
2022-09-20T09:17:48.832Z,1.20
2022-09-20T09:20:24.290Z,1.63
2022-09-20T09:23:09.300Z,2.03
2022-09-20T09:25:41.034Z,1.67
2022-09-20T09:28:15.455Z,1.52
2022-09-20T09:30:47.907Z,1.50
2022-09-20T09:33:34.205Z,1.60
2022-09-20T09:36:18.928Z,1.45
2022-09-20T09:38:58.071Z,1.40
2022-09-20T09:41:37.184Z,1.50
2022-09-20T09:44:21.950Z,1.38
2022-09-20T09:47:02.763Z,1.55
2022-09-20T09:49:36.687Z,1.10
2022-09-20T09:52:24.867Z,1.42
2022-09-20T09:55:06.339Z,1.50
2022-09-20T09:57:56.043Z,1.40
2022-09-20T10:00:27.610Z,1.67
2022-09-20T10:02:56.948Z,1.83
2022-09-20T10:05:47.463Z,1.58
2022-09-20T10:08:55.202Z,1.33
2022-09-20T10:11:40.421Z,1.42
2022-09-20T10:14:24.968Z,1.60
2022-09-20T10:17:27.009Z,1.35
2022-09-20T10:20:15.406Z,1.40
2022-09-20T10:23:30.449Z,1.30
2022-09-20T10:26:42.961Z,1.20
2022-09-20T10:29:26.594Z,1.30
2022-09-20T10:32:17.708Z,1.52
2022-09-20T10:35:06.456Z,1.50
2022-09-20T10:38:12.394Z,1.40
2022-09-20T10:41:09.437Z,1.33
2022-09-20T10:43:46.016Z,1.30
2022-09-20T10:46:39.624Z,1.10
2022-09-20T10:49:25.213Z,1.30
2022-09-20T10:52:22.135Z,1.33
2022-09-20T10:55:11.771Z,1.20
2022-09-20T10:57:57.972Z,1.35
2022-09-20T11:00:39.498Z,1.48
2022-09-20T11:03:13.801Z,1.30
2022-09-20T11:05:47.311Z,1.52
2022-09-20T11:08:56.703Z,1.27
2022-09-20T11:11:42.151Z,1.30
2022-09-20T11:14:19.630Z,1.45
2022-09-20T11:16:57.061Z,1.40
2022-09-20T11:19:34.186Z,2.55
2022-09-20T11:22:19.572Z,1.65
2022-09-20T11:25:29.430Z,1.92
2022-09-20T11:28:25.880Z,1.55
2022-09-20T11:31:22.770Z,1.88
2022-09-20T11:34:10.790Z,1.60
2022-09-20T11:37:17.258Z,1.40
2022-09-20T11:40:00.479Z,1.98
2022-09-20T11:42:39.571Z,1.60
2022-09-20T11:45:40.936Z,2.00
2022-09-20T11:48:25.326Z,1.65
2022-09-20T11:51:06.169Z,1.80
2022-09-20T11:53:56.667Z,1.40
2022-09-20T11:56:28.250Z,1.50
2022-09-20T11:59:00.079Z,1.50
2022-09-20T12:01:34.932Z,1.88
2022-09-20T12:04:33.941Z,1.80
2022-09-20T12:07:27.086Z,1.88
2022-09-20T12:10:22.829Z,1.58
2022-09-20T12:12:58.061Z,1.63
2022-09-20T12:15:32.218Z,1.98
2022-09-20T12:18:26.848Z,1.50
2022-09-20T12:21:18.241Z,1.45
2022-09-20T12:24:09.895Z,1.63
2022-09-20T12:26:47.295Z,2.13
2022-09-20T12:29:23.986Z,1.60
2022-09-20T12:31:56.053Z,1.95
2022-09-20T12:34:26.596Z,1.70
2022-09-20T12:37:06.852Z,1.70
2022-09-20T12:39:40.377Z,2.28
2022-09-20T12:42:13.003Z,1.70
2022-09-20T12:45:09.524Z,2.00
2022-09-20T12:47:56.960Z,1.92
2022-09-20T12:50:47.370Z,2.00
2022-09-20T12:53:21.793Z,2.15
2022-09-20T12:56:13.296Z,2.22
2022-09-20T12:58:48.838Z,2.40
2022-09-20T13:01:40.388Z,1.75
2022-09-20T13:05:22.256Z,1.80
2022-09-20T13:07:44.234Z,1.75
2022-09-20T13:10:22.696Z,1.65
2022-09-20T13:12:55.740Z,2.05
2022-09-20T13:15:23.881Z,2.08
2022-09-20T13:17:56.699Z,1.77
2022-09-20T13:20:31.394Z,1.92
2022-09-20T13:23:00.736Z,1.65
2022-09-20T13:25:29.687Z,2.08
2022-09-20T13:28:53.806Z,1.52
2022-09-20T13:31:26.745Z,1.75
2022-09-20T13:33:55.426Z,1.95
2022-09-20T13:36:27.613Z,1.65
2022-09-20T13:38:57.656Z,1.60
2022-09-20T13:41:29.792Z,1.83
2022-09-20T13:46:44.842Z,1.48
2022-09-20T13:49:21.013Z,1.70
2022-09-20T13:51:49.914Z,1.95
2022-09-20T13:54:30.050Z,1.70
2022-09-20T13:57:12.700Z,1.95
2022-09-20T13:59:45.651Z,2.13
2022-09-20T14:02:38.747Z,1.67
2022-09-20T14:05:17.342Z,2.03
2022-09-20T14:07:47.152Z,1.95
2022-09-20T14:10:57.224Z,1.92
2022-09-20T14:13:24.764Z,1.90
2022-09-20T14:15:52.292Z,1.50
2022-09-20T14:18:31.791Z,1.80
2022-09-20T14:21:02.535Z,1.90
2022-09-20T14:23:43.883Z,1.80
2022-09-20T14:26:17.046Z,1.95
2022-09-20T14:28:49.043Z,2.03
2022-09-20T14:31:24.832Z,1.98
2022-09-20T14:33:58.057Z,2.00
2022-09-20T14:36:40.858Z,2.10
2022-09-20T14:43:28.715Z,1.98
2022-09-20T14:46:07.070Z,1.73
2022-09-20T14:48:40.480Z,1.80
2022-09-20T14:51:19.293Z,2.08
2022-09-20T14:54:13.840Z,2.13
2022-09-20T14:56:57.817Z,2.42
2022-09-20T14:59:27.531Z,1.73
2022-09-20T15:02:06.066Z,2.00
2022-09-20T15:04:37.987Z,1.80
2022-09-20T15:07:15.459Z,1.77
2022-09-20T15:09:43.098Z,2.22
2022-09-20T15:12:19.684Z,1.92
2022-09-20T15:14:55.205Z,2.17
2022-09-20T15:17:22.796Z,2.20
2022-09-20T15:19:50.476Z,2.50
2022-09-20T15:22:17.936Z,2.40
2022-09-20T15:24:49.910Z,2.22
2022-09-20T15:27:19.755Z,2.65
2022-09-20T15:29:47.405Z,2.42
2022-09-20T15:32:17.405Z,2.30
2022-09-20T15:34:50.090Z,2.15
2022-09-20T15:37:19.929Z,2.15
2022-09-20T15:39:48.599Z,2.60
2022-09-20T15:42:16.035Z,2.00
2022-09-20T15:44:44.514Z,2.30
2022-09-20T15:47:15.951Z,2.42
2022-09-20T15:49:46.832Z,2.45
2022-09-20T15:52:14.156Z,1.63
2022-09-20T15:54:41.735Z,2.25
2022-09-20T15:57:09.332Z,2.25
2022-09-20T15:59:36.732Z,2.13
2022-09-20T16:02:04.537Z,2.55
2022-09-20T16:04:35.238Z,3.33
2022-09-20T16:07:03.968Z,2.47
2022-09-20T16:09:35.157Z,2.38
2022-09-20T16:12:06.258Z,2.30
2022-09-20T16:14:34.972Z,2.38
2022-09-20T16:17:03.157Z,2.10
2022-09-20T16:19:30.896Z,2.13
2022-09-20T16:22:00.688Z,2.95
2022-09-20T16:24:31.542Z,2.40
2022-09-20T16:27:01.060Z,2.60
2022-09-20T16:29:30.646Z,2.55
2022-09-20T16:31:58.958Z,2.70
2022-09-20T16:34:37.946Z,2.95
2022-09-20T16:37:12.185Z,2.90
2022-09-20T16:39:42.093Z,2.80
2022-09-20T16:42:12.655Z,2.67
2022-09-20T16:44:43.466Z,3.00
2022-09-20T16:47:18.514Z,2.40
2022-09-20T16:49:48.650Z,3.40
2022-09-20T16:52:15.903Z,3.25
2022-09-20T16:54:46.105Z,3.40
2022-09-20T16:57:14.794Z,3.30
2022-09-20T16:59:45.575Z,3.17
2022-09-20T17:02:17.960Z,3.47
2022-09-20T17:04:47.668Z,3.42
2022-09-20T17:07:15.158Z,3.55
2022-09-20T17:09:45.257Z,3.22
2022-09-20T17:12:13.992Z,3.88
2022-09-20T17:14:44.080Z,3.50
2022-09-20T17:17:13.028Z,3.30
2022-09-20T17:19:40.421Z,3.30
2022-09-20T17:22:09.403Z,3.33
2022-09-20T17:24:37.085Z,3.40
2022-09-20T17:27:05.526Z,3.70
2022-09-20T17:29:36.109Z,3.30
2022-09-20T17:32:04.481Z,3.55
2022-09-20T17:34:34.753Z,3.60
2022-09-20T17:37:04.566Z,3.65
2022-09-20T17:39:31.920Z,3.63
2022-09-20T17:41:59.351Z,3.95
2022-09-20T17:44:35.498Z,3.55
2022-09-20T17:47:04.907Z,3.90
2022-09-20T17:49:32.435Z,3.60
2022-09-20T17:52:01.628Z,4.35
2022-09-20T17:54:33.279Z,3.65
2022-09-20T17:57:02.871Z,3.88
2022-09-20T17:59:34.553Z,3.10
2022-09-20T18:02:01.969Z,4.70
2022-09-20T18:04:29.550Z,3.95
2022-09-20T18:06:56.972Z,4.82
2022-09-20T18:09:27.353Z,4.32
2022-09-20T18:11:55.929Z,3.58
2022-09-20T18:14:25.959Z,3.83
2022-09-20T18:16:58.253Z,3.85
2022-09-20T18:19:33.077Z,3.70
2022-09-20T18:22:02.673Z,4.15
2022-09-20T18:24:32.734Z,3.83
2022-09-20T18:27:01.194Z,4.35
2022-09-20T18:32:06.501Z,4.07
2022-09-20T18:35:34.132Z,4.55
2022-09-20T18:38:05.327Z,4.20
2022-09-20T18:40:35.949Z,5.40
2022-09-20T18:43:09.608Z,4.35
2022-09-20T18:45:52.867Z,4.60
2022-09-20T18:49:43.241Z,4.70
2022-09-20T18:52:45.778Z,5.10
2022-09-20T18:55:29.044Z,4.45
2022-09-20T19:02:08.917Z,4.72
2022-09-20T19:05:18.901Z,4.95
2022-09-20T19:08:37.657Z,5.20
2022-09-20T19:11:15.478Z,4.82
2022-09-20T19:14:00.952Z,5.88
2022-09-20T19:16:42.071Z,5.10
2022-09-20T19:19:19.435Z,7.07
2022-09-20T19:28:19.332Z,5.85
2022-09-20T19:30:56.460Z,5.32
2022-09-20T19:33:28.223Z,5.32
2022-09-20T19:35:59.520Z,5.53
2022-09-20T19:38:48.214Z,6.00
2022-09-20T19:41:49.374Z,5.80
2022-09-20T19:44:29.074Z,5.40
2022-09-20T19:47:32.278Z,6.32
2022-09-20T19:50:18.130Z,6.43
2022-09-20T19:52:46.227Z,5.50
2022-09-20T19:55:15.667Z,5.63
2022-09-20T19:57:47.266Z,6.07
2022-09-20T20:00:18.854Z,5.80
2022-09-20T20:02:47.284Z,5.47
2022-09-20T20:12:49.196Z,6.53
2022-09-20T20:15:45.560Z,6.00
2022-09-20T20:18:41.610Z,5.70
2022-09-20T20:21:22.323Z,5.97
2022-09-20T20:23:52.642Z,6.03
2022-09-20T20:26:21.178Z,5.68
2022-09-20T20:28:55.032Z,5.55
2022-09-20T20:31:23.215Z,5.55
2022-09-20T20:33:51.864Z,6.03
2022-09-20T20:36:19.465Z,6.53
2022-09-20T20:38:50.052Z,5.90
2022-09-20T20:41:21.333Z,5.97
2022-09-20T20:43:57.397Z,5.93
2022-09-20T20:46:26.022Z,5.45
2022-09-20T20:48:53.804Z,5.50
2022-09-20T20:51:23.077Z,5.75
2022-09-20T20:54:00.961Z,5.68
2022-09-20T20:56:30.334Z,6.03
2022-09-20T20:59:35.376Z,5.78
2022-09-20T21:02:07.694Z,6.28
2022-09-20T21:04:39.556Z,5.80
2022-09-20T21:07:07.855Z,5.53
2022-09-20T21:09:37.795Z,5.78
2022-09-20T21:12:06.729Z,6.20
2022-09-20T21:14:35.576Z,6.47
2022-09-20T21:17:03.078Z,6.25
2022-09-20T21:19:30.421Z,6.55
2022-09-20T21:21:57.899Z,6.13
2022-09-20T21:24:28.093Z,5.30
2022-09-20T21:26:55.992Z,6.60
2022-09-20T21:29:23.456Z,5.72
2022-09-20T21:31:50.959Z,6.57
2022-09-20T21:34:18.355Z,6.85
2022-09-20T21:36:45.651Z,6.20
2022-09-20T21:39:13.419Z,6.97
2022-09-20T21:41:41.435Z,6.30
2022-09-20T21:44:15.195Z,6.22
2022-09-20T21:46:42.919Z,6.55
2022-09-20T21:49:12.253Z,7.57
2022-09-20T21:51:45.383Z,6.20
2022-09-20T21:54:16.436Z,6.25
2022-09-20T21:56:46.110Z,6.07
2022-09-20T21:59:13.580Z,8.32
2022-09-20T22:01:41.418Z,6.38
2022-09-20T22:04:15.259Z,6.88
2022-09-20T22:06:44.441Z,6.72
2022-09-20T22:09:16.509Z,6.72
2022-09-20T22:11:46.329Z,7.22
2022-09-20T22:14:18.771Z,7.72
2022-09-20T22:16:47.870Z,7.90
2022-09-20T22:19:18.850Z,6.90
2022-09-20T22:21:51.568Z,8.25
2022-09-20T22:25:10.188Z,8.52
2022-09-20T22:27:37.716Z,7.30
2022-09-20T22:30:07.731Z,10.80
2022-09-20T22:32:38.435Z,9.57
2022-09-20T22:35:06.225Z,9.43
2022-09-20T22:37:33.779Z,9.20
2022-09-20T22:40:01.106Z,10.18
2022-09-20T22:42:28.357Z,9.55
2022-09-20T22:44:56.257Z,9.23
2022-09-20T22:47:26.533Z,9.23
2022-09-20T22:49:54.555Z,10.00
2022-09-20T22:53:00.224Z,9.38
2022-09-20T22:56:02.069Z,8.60
2022-09-20T23:03:18.627Z,8.20
2022-09-20T23:05:47.001Z,7.57
2022-09-20T23:08:14.420Z,7.80
2022-09-20T23:10:41.699Z,7.70
2022-09-20T23:13:08.895Z,6.75
2022-09-20T23:15:38.351Z,7.13
2022-09-20T23:18:05.671Z,8.38
2022-09-20T23:20:33.681Z,7.60
2022-09-20T23:23:00.877Z,8.63
2022-09-20T23:25:29.218Z,7.68
2022-09-20T23:27:56.646Z,7.55
2022-09-20T23:30:24.298Z,7.65
2022-09-20T23:32:54.199Z,6.43
2022-09-20T23:35:21.744Z,7.32
2022-09-20T23:37:49.091Z,8.40
2022-09-20T23:40:16.498Z,6.30
2022-09-20T23:42:43.740Z,7.22
2022-09-20T23:45:12.187Z,6.28
2022-09-20T23:47:39.468Z,5.72
2022-09-20T23:50:07.849Z,7.05
2022-09-20T23:52:35.626Z,6.97
2022-09-20T23:55:04.488Z,7.00
2022-09-20T23:57:34.119Z,7.35
